Details From EBBR - Brussels Airport
To EBAW - Antwerpen Deurne
Flight Number -
Tags Generated
Created
Modified
Stats Distance 18 nm / 34 km
Max Altitude 0 ft / 0 m
Waypoints 2
Social Downloads 6
Likes 0
Share VATSIM

Download

Looking for another format? Having issues loading an existing format? Contact us
Advertisement - Login to hide

Notes

Generated

Route

EBBR EBAW

ID Type Via Altitude Latitude Longitude Leg Dist Tot Dist Heading (true) Name
O EBBR APT - 0 ft / 0 m 50.88681˚ 4.49135˚ - 0 nm - -
O EBAW APT - 0 ft / 0 m 51.19237˚ 4.45277˚ 18 nm 18 nm 355° / 355° -

Altitude Profile

Advertisement - Login to hide

EBBR

Details ICAO EBBR (BRU)
Name Brussels Airport
Region Belgium
Timezone Europe/Brussels (UTC+1.0)
Stats Elevation 184 ft / 56 m (AMSL)
Location 50.899948° 4.492814°
Runways 3
Magnetic Variation 1.124° E

METAR

EBBR 170750Z 25005KT 7000 FEW025 SCT043 01/00 Q1023 NOSIG

Decode

TAF

TAF EBBR 170509Z 1706/1812 25006KT 9999 SCT012 SCT030 PROB30 TEMPO 1706/1710 BKN006 BECMG 1718/1720 19011KT SCT008 BKN012 TEMPO 1720/1805 4000 RADZ BKN007 BECMG 1805/1808 34010KT SCT015 SCT030

Decode

Departure Runways

ID Width Length Bearing (true) Bearing (mag) Surface Threshold Offset Overrun Length
02 164 ft / 50 m 9,896 ft / 3,016 m 14.41° 13.29° Asphalt 249 ft / 76 m 0 ft / 0 m
07L 148 ft / 45 m 12,106 ft / 3,690 m 65.16° 64.04° Asphalt 801 ft / 244 m 0 ft / 0 m
07R 148 ft / 45 m 10,703 ft / 3,262 m 69.90° 68.78° Asphalt 499 ft / 152 m 0 ft / 0 m
20 164 ft / 50 m 9,896 ft / 3,016 m 194.42° 193.30° Asphalt 751 ft / 229 m 0 ft / 0 m
25L 148 ft / 45 m 10,703 ft / 3,262 m 249.93° 248.81° Asphalt 499 ft / 152 m 0 ft / 0 m
25R 148 ft / 45 m 12,106 ft / 3,690 m 245.20° 244.08° Asphalt 801 ft / 244 m 0 ft / 0 m

EBAW

Details ICAO EBAW (ANR)
Name Antwerp Deurne
Region Belgium
Timezone Europe/Brussels (UTC+1.0)
Stats Elevation 39 ft / 12 m (AMSL)
Location 51.190654° 4.463776°
Runways 2
Magnetic Variation 1.099° E

METAR

EBAW 170750Z 26003KT 7000 FEW037 01/M00 Q1023 NOSIG

Decode

TAF

Not found

Destination Runways

ID Width Length Bearing (true) Bearing (mag) Surface Threshold Offset Overrun Length
11 148 ft / 45 m 4,931 ft / 1,503 m 109.83° 108.73° Asphalt 472 ft / 144 m 0 ft / 0 m
11L 164 ft / 50 m 3,317 ft / 1,011 m 109.83° 108.73° Grass 0 ft / 0 m 0 ft / 0 m
29 148 ft / 45 m 4,931 ft / 1,503 m 289.85° 288.75° Asphalt 400 ft / 122 m 0 ft / 0 m
29R 164 ft / 50 m 3,317 ft / 1,011 m 289.85° 288.75° Grass 0 ft / 0 m 0 ft / 0 m

Approach Navaids

Runway Type Ident Frequency Range Bearing (true) Bearing (mag) Slope Elevation
29 Localiser IAD 111.75 MHz 18 nm / 33 km 289.64° 288.54° - 39 ft / 12 m (AMSL)
29 Glidescope IAD 111.75 MHz 10 nm / 19 km 289.84° 288.74° 3.00° 39 ft / 12 m (AMSL)
29 DME IAD 111.75 MHz 18 nm / 33 km - - - 39 ft / 12 m (AMSL)

Popular Alternatives